Weather History for Duncan, OK

Change the Weather History Date:

Thursday, March 28, 2013

  Actual Average (KLAW) Record (KLAW)
Temperature  
Mean Temperature 62 °F -  
Max Temperature 73 °F 68 °F 95 °F (1971)
Min Temperature 50 °F 44 °F 26 °F (1987)
Degree Days  
Heating Degree Days 4    
Growing Degree Days 12 (Base 50)    
Moisture  
Dew Point 50 °F    
Average Humidity 66    
Maximum Humidity 87    
Minimum Humidity 47    
Precipitation  
Precipitation 0.00 in - - ()
Sea Level Pressure  
Sea Level Pressure 30.09 in    
Wind  
Wind Speed 13 mph (SSE)    
Max Wind Speed 21 mph    
Max Gust Speed 29 mph    
Visibility 10 miles    
Events      
Averages and records for this station are not official NWS values.
T = Trace of Precipitation, MM = Missing Value Source: NWS Daily Summary

Daily Weather History Graph

Daily Weather History Graph

Search for Another Location

Airport:

Trip Planner

Search our weather history database for the weather conditions in past years. The results will help you decide how hot, cold, wet, or windy it might be!

Date:

Astronomy

Mar. 28, 2013 Rise Set
Actual Time 7:24 AM CDT 7:50 PM CDT
Civil Twilight 6:58 AM CDT 8:15 PM CDT
Nautical Twilight 6:29 AM CDT 8:44 PM CDT
Astronomical Twilight 5:59 AM CDT 9:15 PM CDT
Moon 9:36 PM CDT (3/28) 7:57 AM CDT (3/28)
Length of Visible Light 13h 16m
Length of Day
12h 25m
Full, 98% of the Moon is Illuminated
Mar 28
Full
Apr 2
Last Quarter
Apr 10
New
Apr 18
First Quarter
Apr 25
Full

Hourly Weather History & Observations

Time (CDT) Temp. Dew Point Humidity Pressure Visibility Wind Dir Wind Speed Gust Speed Precip Events Conditions
12:15 AM 57.2 °F 42.8 °F 59% 30.09 in 10.0 mi SSE 10.4 mph 17.3 mph N/A   Clear
12:35 AM 55.4 °F 42.8 °F 63% 30.09 in 10.0 mi SSE 10.4 mph - N/A   Clear
12:55 AM 57.2 °F 42.8 °F 59% 30.09 in 10.0 mi SSE 12.7 mph 19.6 mph N/A   Clear
1:15 AM 55.4 °F 42.8 °F 63% 30.09 in 10.0 mi SSE 11.5 mph - N/A   Clear
1:35 AM 55.4 °F 42.8 °F 63% 30.10 in 10.0 mi SSE 8.1 mph - N/A   Clear
1:55 AM 55.4 °F 42.8 °F 63% 30.10 in 10.0 mi SSE 9.2 mph - N/A   Clear
2:15 AM 53.6 °F 42.8 °F 67% 30.10 in 10.0 mi SSE 8.1 mph - N/A   Clear
2:35 AM 53.6 °F 42.8 °F 67% 30.09 in 10.0 mi SE 10.4 mph - N/A   Clear
2:55 AM 53.6 °F 42.8 °F 67% 30.09 in 10.0 mi SSE 9.2 mph - N/A   Clear
3:15 AM 51.8 °F 44.6 °F 76% 30.09 in 10.0 mi SSE 9.2 mph - N/A   Clear
3:35 AM 51.8 °F 44.6 °F 76% 30.09 in 10.0 mi SSE 9.2 mph - N/A   Clear
4:15 AM 51.8 °F 44.6 °F 76% 30.09 in 10.0 mi SSE 9.2 mph - N/A   Clear
4:35 AM 51.8 °F 44.6 °F 76% 30.09 in 10.0 mi SSE 9.2 mph - N/A   Clear
4:55 AM 51.8 °F 44.6 °F 76% 30.09 in 10.0 mi SSE 11.5 mph - N/A   Clear
5:15 AM 51.8 °F 44.6 °F 76% 30.09 in 10.0 mi SSE 9.2 mph - N/A   Clear
5:35 AM 51.8 °F 44.6 °F 76% 30.09 in 10.0 mi SSE 10.4 mph - N/A   Clear
5:55 AM 51.8 °F 44.6 °F 76% 30.09 in 10.0 mi SSE 9.2 mph - N/A   Clear
6:15 AM 51.8 °F 46.4 °F 82% 30.10 in 10.0 mi SSE 11.5 mph - N/A   Clear
6:35 AM 51.8 °F 46.4 °F 82% 30.10 in 10.0 mi South 10.4 mph - N/A   Clear
7:15 AM 50.0 °F 44.6 °F 82% 30.11 in 10.0 mi SSE 9.2 mph - N/A   Clear
7:55 AM 50.0 °F 46.4 °F 87% 30.13 in 10.0 mi South 10.4 mph - N/A   Clear
8:15 AM 51.8 °F 46.4 °F 82% 30.13 in 10.0 mi South 11.5 mph - N/A   Clear
8:35 AM 51.8 °F 46.4 °F 82% 30.14 in 10.0 mi South 12.7 mph - N/A   Clear
8:55 AM 51.8 °F 46.4 °F 82% 30.15 in 10.0 mi South 12.7 mph - N/A   Clear
9:15 AM 53.6 °F 48.2 °F 82% 30.15 in 10.0 mi South 13.8 mph - N/A   Clear
9:35 AM 55.4 °F 50.0 °F 82% 30.16 in 10.0 mi South 18.4 mph - N/A   Clear
9:55 AM 55.4 °F 50.0 °F 82% 30.15 in 10.0 mi South 17.3 mph - N/A   Clear
10:15 AM 57.2 °F 50.0 °F 77% 30.15 in 10.0 mi South 17.3 mph 23.0 mph N/A   Clear
10:55 AM 62.6 °F 50.0 °F 63% 30.15 in 10.0 mi South 17.3 mph - N/A   Clear
11:15 AM 62.6 °F 51.8 °F 68% 30.15 in 10.0 mi South 18.4 mph - N/A   Clear
11:35 AM 64.4 °F 51.8 °F 64% 30.14 in 10.0 mi South 18.4 mph - N/A   Clear
11:55 AM 64.4 °F 51.8 °F 64% 30.14 in 10.0 mi South 17.3 mph - N/A   Clear
12:15 PM 68.0 °F 51.8 °F 56% 30.14 in 10.0 mi South 15.0 mph 23.0 mph N/A   Clear
12:35 PM 68.0 °F 51.8 °F 56% 30.13 in 10.0 mi South 17.3 mph 21.9 mph N/A   Clear
12:55 PM 69.8 °F 51.8 °F 53% 30.12 in 10.0 mi SSE 17.3 mph 21.9 mph N/A   Clear
1:15 PM 69.8 °F 51.8 °F 53% 30.11 in 10.0 mi South 15.0 mph 20.7 mph N/A   Clear
1:35 PM 71.6 °F 51.8 °F 50% 30.10 in 10.0 mi South 15.0 mph 21.9 mph N/A   Clear
1:55 PM 71.6 °F 53.6 °F 53% 30.08 in 10.0 mi SSE 18.4 mph 24.2 mph N/A   Clear
2:15 PM 71.6 °F 51.8 °F 50% 30.07 in 10.0 mi SSE 20.7 mph 25.3 mph N/A   Clear
2:35 PM 71.6 °F 53.6 °F 53% 30.07 in 10.0 mi SSE 20.7 mph 27.6 mph N/A   Scattered Clouds
2:55 PM 73.4 °F 53.6 °F 50% 30.06 in 10.0 mi South 19.6 mph 24.2 mph N/A   Scattered Clouds
3:15 PM 73.4 °F 51.8 °F 47% 30.05 in 10.0 mi South 19.6 mph 28.8 mph N/A   Scattered Clouds
3:35 PM 73.4 °F 53.6 °F 50% 30.04 in 10.0 mi South 18.4 mph 24.2 mph N/A   Scattered Clouds
3:55 PM 71.6 °F 51.8 °F 50% 30.04 in 10.0 mi SSE 18.4 mph 24.2 mph N/A   Scattered Clouds
4:15 PM 71.6 °F 51.8 °F 50% 30.04 in 10.0 mi South 17.3 mph - N/A   Mostly Cloudy
4:35 PM 71.6 °F 51.8 °F 50% 30.04 in 10.0 mi South 19.6 mph 24.2 mph N/A   Scattered Clouds
4:55 PM 71.6 °F 51.8 °F 50% 30.04 in 10.0 mi South 15.0 mph - N/A   Scattered Clouds
5:15 PM 71.6 °F 51.8 °F 50% 30.03 in 10.0 mi South 20.7 mph - N/A   Scattered Clouds
5:35 PM 71.6 °F 51.8 °F 50% 30.03 in 10.0 mi South 18.4 mph - N/A   Scattered Clouds
5:55 PM 69.8 °F 51.8 °F 53% 30.03 in 10.0 mi South 20.7 mph - N/A   Scattered Clouds
6:15 PM 69.8 °F 53.6 °F 56% 30.04 in 10.0 mi South 19.6 mph 26.5 mph N/A   Scattered Clouds
6:35 PM 69.8 °F 53.6 °F 56% 30.04 in 10.0 mi SSE 18.4 mph 26.5 mph N/A   Clear
6:55 PM 68.0 °F 53.6 °F 60% 30.05 in 10.0 mi SSE 15.0 mph 19.6 mph N/A   Scattered Clouds
7:15 PM 68.0 °F 53.6 °F 60% 30.05 in 10.0 mi SSE 17.3 mph 23.0 mph N/A   Scattered Clouds
7:35 PM 68.0 °F 53.6 °F 60% 30.05 in 10.0 mi SSE 13.8 mph 19.6 mph N/A   Clear
7:55 PM 66.2 °F 53.6 °F 64% 30.05 in 10.0 mi SSE 12.7 mph - N/A   Clear
8:15 PM 66.2 °F 53.6 °F 64% 30.05 in 10.0 mi SE 11.5 mph - N/A   Clear
8:35 PM 64.4 °F 53.6 °F 68% 30.06 in 10.0 mi SSE 11.5 mph - N/A   Clear
8:55 PM 64.4 °F 53.6 °F 68% 30.06 in 10.0 mi SSE 12.7 mph 16.1 mph N/A   Clear
9:15 PM 64.4 °F 55.4 °F 73% 30.06 in 10.0 mi SSE 11.5 mph - N/A   Clear
9:35 PM 64.4 °F 55.4 °F 73% 30.07 in 10.0 mi SSE 12.7 mph 16.1 mph N/A   Clear
9:55 PM 62.6 °F 55.4 °F 77% 30.08 in 10.0 mi SE 10.4 mph - N/A   Clear
10:15 PM 62.6 °F 55.4 °F 77% 30.09 in 10.0 mi SE 10.4 mph - N/A   Clear
10:35 PM 60.8 °F 55.4 °F 82% 30.09 in 10.0 mi SE 10.4 mph - N/A   Clear
10:55 PM 60.8 °F 55.4 °F 82% 30.09 in 10.0 mi SE 9.2 mph - N/A   Clear
11:15 PM 60.8 °F 55.4 °F 82% 30.09 in 10.0 mi SE 10.4 mph - N/A   Clear
11:55 PM 60.8 °F 55.4 °F 82% 30.09 in 10.0 mi SE 11.5 mph - N/A   Clear